sensor_id;sensor_type;location;lat;lon;timestamp;temperature;humidity
41985;DHT22;28319;48.116;10.818;2023-12-07T00:00:45;1.30;99.90
41985;DHT22;28319;48.116;10.818;2023-12-07T00:05:46;1.20;99.90
41985;DHT22;28319;48.116;10.818;2023-12-07T00:10:50;1.20;99.90
41985;DHT22;28319;48.116;10.818;2023-12-07T00:15:52;1.20;99.90
41985;DHT22;28319;48.116;10.818;2023-12-07T00:20:54;1.10;99.90
41985;DHT22;28319;48.116;10.818;2023-12-07T00:25:57;1.10;99.90
41985;DHT22;28319;48.116;10.818;2023-12-07T00:30:59;1.00;99.90
41985;DHT22;28319;48.116;10.818;2023-12-07T00:36:02;0.90;99.90
41985;DHT22;28319;48.116;10.818;2023-12-07T00:41:06;0.80;99.90
41985;DHT22;28319;48.116;10.818;2023-12-07T00:46:08;0.70;99.90
41985;DHT22;28319;48.116;10.818;2023-12-07T00:51:10;0.60;99.90
41985;DHT22;28319;48.116;10.818;2023-12-07T00:56:13;0.50;99.90
41985;DHT22;28319;48.116;10.818;2023-12-07T01:01:15;0.50;99.90
41985;DHT22;28319;48.116;10.818;2023-12-07T01:06:17;0.20;99.90
41985;DHT22;28319;48.116;10.818;2023-12-07T01:11:20;0.20;99.90
41985;DHT22;28319;48.116;10.818;2023-12-07T01:16:22;0.10;99.90
41985;DHT22;28319;48.116;10.818;2023-12-07T01:21:25;0.10;99.90
41985;DHT22;28319;48.116;10.818;2023-12-07T01:26:28;0.00;99.90
41985;DHT22;28319;48.116;10.818;2023-12-07T01:31:30;0.10;99.90
41985;DHT22;28319;48.116;10.818;2023-12-07T01:36:32;0.00;99.90
41985;DHT22;28319;48.116;10.818;2023-12-07T01:41:35;0.10;99.90
41985;DHT22;28319;48.116;10.818;2023-12-07T01:46:37;0.00;99.90
41985;DHT22;28319;48.116;10.818;2023-12-07T01:51:39;0.00;99.90
41985;DHT22;28319;48.116;10.818;2023-12-07T01:56:43;0.00;99.90
41985;DHT22;28319;48.116;10.818;2023-12-07T02:01:45;0.00;99.90
41985;DHT22;28319;48.116;10.818;2023-12-07T02:06:47;0.00;99.90
41985;DHT22;28319;48.116;10.818;2023-12-07T02:11:56;-0.20;99.90
41985;DHT22;28319;48.116;10.818;2023-12-07T02:17:04;-0.30;99.90
41985;DHT22;28319;48.116;10.818;2023-12-07T02:22:14;-0.40;99.90
41985;DHT22;28319;48.116;10.818;2023-12-07T02:27:34;-0.30;99.90
41985;DHT22;28319;48.116;10.818;2023-12-07T02:32:36;-0.50;99.90
41985;DHT22;28319;48.116;10.818;2023-12-07T02:37:42;-0.50;99.90
41985;DHT22;28319;48.116;10.818;2023-12-07T02:42:47;-0.50;99.90
41985;DHT22;28319;48.116;10.818;2023-12-07T02:47:49;-0.50;99.90
41985;DHT22;28319;48.116;10.818;2023-12-07T02:52:51;-0.50;99.90
41985;DHT22;28319;48.116;10.818;2023-12-07T02:57:54;-0.30;99.90
41985;DHT22;28319;48.116;10.818;2023-12-07T03:02:56;-0.30;99.90
41985;DHT22;28319;48.116;10.818;2023-12-07T03:07:58;-0.30;99.90
41985;DHT22;28319;48.116;10.818;2023-12-07T03:13:01;-0.30;99.90
41985;DHT22;28319;48.116;10.818;2023-12-07T03:18:03;-0.20;99.90
41985;DHT22;28319;48.116;10.818;2023-12-07T03:23:05;-0.20;99.90
41985;DHT22;28319;48.116;10.818;2023-12-07T03:28:09;-0.40;99.90
41985;DHT22;28319;48.116;10.818;2023-12-07T03:33:11;-0.50;99.90
41985;DHT22;28319;48.116;10.818;2023-12-07T03:38:13;-0.50;99.90
41985;DHT22;28319;48.116;10.818;2023-12-07T03:43:19;-0.50;99.90
41985;DHT22;28319;48.116;10.818;2023-12-07T03:48:21;-0.70;99.90
41985;DHT22;28319;48.116;10.818;2023-12-07T03:53:23;-0.60;99.90
41985;DHT22;28319;48.116;10.818;2023-12-07T03:58:26;-0.60;99.90
41985;DHT22;28319;48.116;10.818;2023-12-07T04:03:28;-0.50;99.90
41985;DHT22;28319;48.116;10.818;2023-12-07T04:08:30;-0.50;99.90
41985;DHT22;28319;48.116;10.818;2023-12-07T04:13:33;-0.60;99.90
41985;DHT22;28319;48.116;10.818;2023-12-07T04:18:35;-0.50;99.90
41985;DHT22;28319;48.116;10.818;2023-12-07T04:23:37;-0.30;99.90
41985;DHT22;28319;48.116;10.818;2023-12-07T04:28:40;-0.50;99.90
41985;DHT22;28319;48.116;10.818;2023-12-07T04:33:42;-0.50;99.90
41985;DHT22;28319;48.116;10.818;2023-12-07T04:38:44;-0.40;99.90
41985;DHT22;28319;48.116;10.818;2023-12-07T04:43:47;-0.30;99.90
41985;DHT22;28319;48.116;10.818;2023-12-07T04:48:49;-0.30;99.90
41985;DHT22;28319;48.116;10.818;2023-12-07T04:53:51;-0.30;99.90
41985;DHT22;28319;48.116;10.818;2023-12-07T04:58:54;-0.30;99.90
41985;DHT22;28319;48.116;10.818;2023-12-07T05:03:56;-0.30;99.90
41985;DHT22;28319;48.116;10.818;2023-12-07T05:08:58;-0.60;99.90
41985;DHT22;28319;48.116;10.818;2023-12-07T05:14:01;-0.60;99.90
41985;DHT22;28319;48.116;10.818;2023-12-07T05:19:04;-0.50;99.90
41985;DHT22;28319;48.116;10.818;2023-12-07T05:24:06;-0.50;99.90
41985;DHT22;28319;48.116;10.818;2023-12-07T05:29:10;-0.40;99.90
41985;DHT22;28319;48.116;10.818;2023-12-07T05:34:12;-0.70;99.90
41985;DHT22;28319;48.116;10.818;2023-12-07T05:39:14;-0.70;99.90
41985;DHT22;28319;48.116;10.818;2023-12-07T05:44:19;-0.80;99.90
41985;DHT22;28319;48.116;10.818;2023-12-07T05:49:22;-0.80;99.90
41985;DHT22;28319;48.116;10.818;2023-12-07T05:54:24;-0.90;99.90
41985;DHT22;28319;48.116;10.818;2023-12-07T05:59:28;-0.80;99.90
41985;DHT22;28319;48.116;10.818;2023-12-07T06:04:29;-0.90;99.90
41985;DHT22;28319;48.116;10.818;2023-12-07T06:09:31;-1.20;99.90
41985;DHT22;28319;48.116;10.818;2023-12-07T06:14:35;-1.30;99.90
41985;DHT22;28319;48.116;10.818;2023-12-07T06:19:36;-1.20;99.90
41985;DHT22;28319;48.116;10.818;2023-12-07T06:24:38;-1.30;99.90
41985;DHT22;28319;48.116;10.818;2023-12-07T06:29:42;-1.20;99.90
41985;DHT22;28319;48.116;10.818;2023-12-07T06:34:43;-1.20;99.90
41985;DHT22;28319;48.116;10.818;2023-12-07T06:39:46;-1.20;99.90
41985;DHT22;28319;48.116;10.818;2023-12-07T06:44:50;-1.20;99.90
41985;DHT22;28319;48.116;10.818;2023-12-07T06:49:52;-1.40;99.90
41985;DHT22;28319;48.116;10.818;2023-12-07T06:54:54;-1.40;99.90
41985;DHT22;28319;48.116;10.818;2023-12-07T06:59:57;-1.40;99.90
41985;DHT22;28319;48.116;10.818;2023-12-07T07:04:59;-1.40;99.90
41985;DHT22;28319;48.116;10.818;2023-12-07T07:10:01;-1.50;99.90
41985;DHT22;28319;48.116;10.818;2023-12-07T07:15:08;-1.40;99.90
41985;DHT22;28319;48.116;10.818;2023-12-07T07:20:11;-1.40;99.90
41985;DHT22;28319;48.116;10.818;2023-12-07T07:25:13;-1.40;99.90
41985;DHT22;28319;48.116;10.818;2023-12-07T07:30:18;-1.40;99.90
41985;DHT22;28319;48.116;10.818;2023-12-07T07:35:20;-1.40;99.90
41985;DHT22;28319;48.116;10.818;2023-12-07T07:40:22;-1.40;99.90
41985;DHT22;28319;48.116;10.818;2023-12-07T07:45:26;-1.50;99.90
41985;DHT22;28319;48.116;10.818;2023-12-07T07:50:28;-1.60;99.90
41985;DHT22;28319;48.116;10.818;2023-12-07T07:55:30;-1.60;99.90
41985;DHT22;28319;48.116;10.818;2023-12-07T08:00:33;-1.50;99.90
41985;DHT22;28319;48.116;10.818;2023-12-07T08:05:36;-1.50;99.90
41985;DHT22;28319;48.116;10.818;2023-12-07T08:10:37;-1.40;99.90
41985;DHT22;28319;48.116;10.818;2023-12-07T08:15:41;-1.40;99.90
41985;DHT22;28319;48.116;10.818;2023-12-07T08:20:43;-1.40;99.90
41985;DHT22;28319;48.116;10.818;2023-12-07T08:25:45;-1.40;99.90
41985;DHT22;28319;48.116;10.818;2023-12-07T08:30:50;-1.30;99.90
41985;DHT22;28319;48.116;10.818;2023-12-07T08:35:51;-1.30;99.90
41985;DHT22;28319;48.116;10.818;2023-12-07T08:40:55;-1.20;99.90
41985;DHT22;28319;48.116;10.818;2023-12-07T08:45:59;-1.20;99.90
41985;DHT22;28319;48.116;10.818;2023-12-07T08:51:01;-1.10;99.90
41985;DHT22;28319;48.116;10.818;2023-12-07T08:56:04;-1.10;99.90
41985;DHT22;28319;48.116;10.818;2023-12-07T09:01:08;-1.00;99.90
41985;DHT22;28319;48.116;10.818;2023-12-07T09:06:09;-0.90;99.90
41985;DHT22;28319;48.116;10.818;2023-12-07T09:11:11;-0.70;99.90
41985;DHT22;28319;48.116;10.818;2023-12-07T09:16:15;-0.50;99.90
41985;DHT22;28319;48.116;10.818;2023-12-07T09:21:17;-0.40;99.90
41985;DHT22;28319;48.116;10.818;2023-12-07T09:26:18;-0.20;99.90
41985;DHT22;28319;48.116;10.818;2023-12-07T09:31:22;0.10;99.90
41985;DHT22;28319;48.116;10.818;2023-12-07T09:36:24;0.20;99.90
41985;DHT22;28319;48.116;10.818;2023-12-07T09:41:28;0.50;99.90
41985;DHT22;28319;48.116;10.818;2023-12-07T09:46:32;0.80;99.90
41985;DHT22;28319;48.116;10.818;2023-12-07T09:51:35;1.10;99.90
41985;DHT22;28319;48.116;10.818;2023-12-07T09:56:37;1.50;99.90
41985;DHT22;28319;48.116;10.818;2023-12-07T10:01:40;1.90;99.90
41985;DHT22;28319;48.116;10.818;2023-12-07T10:06:43;2.20;99.90
41985;DHT22;28319;48.116;10.818;2023-12-07T10:11:46;2.40;99.90
41985;DHT22;28319;48.116;10.818;2023-12-07T10:16:54;2.80;99.90
41985;DHT22;28319;48.116;10.818;2023-12-07T10:21:57;3.10;99.90
41985;DHT22;28319;48.116;10.818;2023-12-07T10:26:59;3.30;99.90
41985;DHT22;28319;48.116;10.818;2023-12-07T10:32:03;3.70;99.90
41985;DHT22;28319;48.116;10.818;2023-12-07T10:37:05;4.00;99.90
41985;DHT22;28319;48.116;10.818;2023-12-07T10:42:10;4.10;99.90
41985;DHT22;28319;48.116;10.818;2023-12-07T10:47:14;4.30;99.90
41985;DHT22;28319;48.116;10.818;2023-12-07T10:52:18;4.80;99.90
41985;DHT22;28319;48.116;10.818;2023-12-07T10:57:23;4.50;99.90
41985;DHT22;28319;48.116;10.818;2023-12-07T11:02:27;4.10;99.90
41985;DHT22;28319;48.116;10.818;2023-12-07T11:07:38;4.30;99.90
41985;DHT22;28319;48.116;10.818;2023-12-07T11:12:47;4.50;99.90
41985;DHT22;28319;48.116;10.818;2023-12-07T11:17:54;4.30;99.90
41985;DHT22;28319;48.116;10.818;2023-12-07T11:22:56;4.20;98.60
41985;DHT22;28319;48.116;10.818;2023-12-07T11:28:02;4.30;97.50
41985;DHT22;28319;48.116;10.818;2023-12-07T11:33:07;4.10;97.50
41985;DHT22;28319;48.116;10.818;2023-12-07T11:38:16;4.40;96.60
41985;DHT22;28319;48.116;10.818;2023-12-07T11:43:37;4.10;96.10
41985;DHT22;28319;48.116;10.818;2023-12-07T11:48:47;4.00;95.50
41985;DHT22;28319;48.116;10.818;2023-12-07T11:53:50;4.00;96.20
41985;DHT22;28319;48.116;10.818;2023-12-07T11:58:52;4.40;95.00
41985;DHT22;28319;48.116;10.818;2023-12-07T12:03:58;4.50;96.30
41985;DHT22;28319;48.116;10.818;2023-12-07T12:09:00;4.50;95.60
41985;DHT22;28319;48.116;10.818;2023-12-07T12:14:02;4.60;95.40
41985;DHT22;28319;48.116;10.818;2023-12-07T12:19:06;4.90;94.20
41985;DHT22;28319;48.116;10.818;2023-12-07T12:24:10;4.90;95.30
41985;DHT22;28319;48.116;10.818;2023-12-07T12:29:12;5.20;96.10
41985;DHT22;28319;48.116;10.818;2023-12-07T12:34:16;5.40;95.00
41985;DHT22;28319;48.116;10.818;2023-12-07T12:39:20;5.40;95.80
41985;DHT22;28319;48.116;10.818;2023-12-07T12:44:28;5.40;95.40
41985;DHT22;28319;48.116;10.818;2023-12-07T12:49:36;5.60;96.30
41985;DHT22;28319;48.116;10.818;2023-12-07T12:54:43;5.30;96.90
41985;DHT22;28319;48.116;10.818;2023-12-07T12:59:45;5.30;96.30
41985;DHT22;28319;48.116;10.818;2023-12-07T13:04:50;5.20;93.90
41985;DHT22;28319;48.116;10.818;2023-12-07T13:09:52;5.20;95.40
41985;DHT22;28319;48.116;10.818;2023-12-07T13:14:54;5.20;94.30
41985;DHT22;28319;48.116;10.818;2023-12-07T13:19:59;5.30;94.00
41985;DHT22;28319;48.116;10.818;2023-12-07T13:25:01;5.20;96.50
41985;DHT22;28319;48.116;10.818;2023-12-07T13:30:04;5.40;95.10
41985;DHT22;28319;48.116;10.818;2023-12-07T13:35:08;5.40;96.50
41985;DHT22;28319;48.116;10.818;2023-12-07T13:40:11;5.20;96.10
41985;DHT22;28319;48.116;10.818;2023-12-07T13:45:13;5.10;96.00
41985;DHT22;28319;48.116;10.818;2023-12-07T13:50:16;5.00;96.70
41985;DHT22;28319;48.116;10.818;2023-12-07T13:55:18;4.60;97.30
41985;DHT22;28319;48.116;10.818;2023-12-07T14:00:20;4.20;96.80
41985;DHT22;28319;48.116;10.818;2023-12-07T14:05:24;4.00;97.10
41985;DHT22;28319;48.116;10.818;2023-12-07T14:10:27;3.80;97.60
41985;DHT22;28319;48.116;10.818;2023-12-07T14:15:29;3.50;98.20
41985;DHT22;28319;48.116;10.818;2023-12-07T14:20:34;3.40;99.30
41985;DHT22;28319;48.116;10.818;2023-12-07T14:25:36;3.40;99.90
41985;DHT22;28319;48.116;10.818;2023-12-07T14:30:40;3.30;99.60
41985;DHT22;28319;48.116;10.818;2023-12-07T14:35:44;3.30;99.90
41985;DHT22;28319;48.116;10.818;2023-12-07T14:40:45;3.50;99.90
41985;DHT22;28319;48.116;10.818;2023-12-07T14:45:47;3.40;99.90
41985;DHT22;28319;48.116;10.818;2023-12-07T14:50:51;3.40;99.90
41985;DHT22;28319;48.116;10.818;2023-12-07T14:55:53;3.50;99.90
41985;DHT22;28319;48.116;10.818;2023-12-07T15:00:57;3.40;99.90
41985;DHT22;28319;48.116;10.818;2023-12-07T15:06:01;3.20;99.90
41985;DHT22;28319;48.116;10.818;2023-12-07T15:11:03;3.30;99.90
41985;DHT22;28319;48.116;10.818;2023-12-07T15:16:06;3.20;99.90
41985;DHT22;28319;48.116;10.818;2023-12-07T15:21:09;3.20;99.90
41985;DHT22;28319;48.116;10.818;2023-12-07T15:26:11;3.10;99.90
41985;DHT22;28319;48.116;10.818;2023-12-07T15:31:13;3.00;99.90
41985;DHT22;28319;48.116;10.818;2023-12-07T15:36:17;2.80;99.90
41985;DHT22;28319;48.116;10.818;2023-12-07T15:41:19;2.80;99.90
41985;DHT22;28319;48.116;10.818;2023-12-07T15:46:21;2.60;99.90
41985;DHT22;28319;48.116;10.818;2023-12-07T15:51:24;2.40;99.90
41985;DHT22;28319;48.116;10.818;2023-12-07T15:56:26;2.40;99.90
41985;DHT22;28319;48.116;10.818;2023-12-07T16:01:28;2.30;99.90
41985;DHT22;28319;48.116;10.818;2023-12-07T16:06:31;2.10;99.90
41985;DHT22;28319;48.116;10.818;2023-12-07T16:11:33;2.10;99.90
41985;DHT22;28319;48.116;10.818;2023-12-07T16:16:35;2.00;99.90
41985;DHT22;28319;48.116;10.818;2023-12-07T16:21:40;1.90;99.90
41985;DHT22;28319;48.116;10.818;2023-12-07T16:26:43;1.80;99.90
41985;DHT22;28319;48.116;10.818;2023-12-07T16:31:45;1.70;99.90
41985;DHT22;28319;48.116;10.818;2023-12-07T16:36:48;1.70;99.90
41985;DHT22;28319;48.116;10.818;2023-12-07T16:41:51;1.70;99.90
41985;DHT22;28319;48.116;10.818;2023-12-07T16:46:53;1.50;99.90
41985;DHT22;28319;48.116;10.818;2023-12-07T16:51:57;1.50;99.90
41985;DHT22;28319;48.116;10.818;2023-12-07T16:57:00;1.40;99.90
41985;DHT22;28319;48.116;10.818;2023-12-07T17:02:08;1.40;99.90
41985;DHT22;28319;48.116;10.818;2023-12-07T17:07:11;1.20;99.90
41985;DHT22;28319;48.116;10.818;2023-12-07T17:12:13;0.70;99.90
41985;DHT22;28319;48.116;10.818;2023-12-07T17:17:15;0.80;99.90
41985;DHT22;28319;48.116;10.818;2023-12-07T17:22:19;0.30;99.90
41985;DHT22;28319;48.116;10.818;2023-12-07T17:27:20;0.40;99.90
41985;DHT22;28319;48.116;10.818;2023-12-07T17:32:22;0.20;99.90
41985;DHT22;28319;48.116;10.818;2023-12-07T17:37:26;0.20;99.90
41985;DHT22;28319;48.116;10.818;2023-12-07T17:42:28;0.20;99.90
41985;DHT22;28319;48.116;10.818;2023-12-07T17:47:30;0.20;99.90
41985;DHT22;28319;48.116;10.818;2023-12-07T17:52:33;0.10;99.90
41985;DHT22;28319;48.116;10.818;2023-12-07T17:57:35;0.00;99.90
41985;DHT22;28319;48.116;10.818;2023-12-07T18:02:37;0.10;99.90
41985;DHT22;28319;48.116;10.818;2023-12-07T18:07:43;0.10;99.90
41985;DHT22;28319;48.116;10.818;2023-12-07T18:12:45;0.00;99.90
41985;DHT22;28319;48.116;10.818;2023-12-07T18:17:47;0.00;99.90
41985;DHT22;28319;48.116;10.818;2023-12-07T18:22:50;0.20;99.90
41985;DHT22;28319;48.116;10.818;2023-12-07T18:27:52;0.20;99.90
41985;DHT22;28319;48.116;10.818;2023-12-07T18:32:54;0.20;99.90
41985;DHT22;28319;48.116;10.818;2023-12-07T18:37:58;0.30;99.90
41985;DHT22;28319;48.116;10.818;2023-12-07T18:43:01;0.30;99.90
41985;DHT22;28319;48.116;10.818;2023-12-07T18:48:03;0.30;99.90
41985;DHT22;28319;48.116;10.818;2023-12-07T18:53:07;0.10;99.90
41985;DHT22;28319;48.116;10.818;2023-12-07T18:58:09;-0.10;99.90
41985;DHT22;28319;48.116;10.818;2023-12-07T19:03:11;0.00;99.90
41985;DHT22;28319;48.116;10.818;2023-12-07T19:08:14;-0.20;99.90
41985;DHT22;28319;48.116;10.818;2023-12-07T19:13:16;-0.30;99.90
41985;DHT22;28319;48.116;10.818;2023-12-07T19:18:18;-0.10;99.90
41985;DHT22;28319;48.116;10.818;2023-12-07T19:23:22;0.00;99.90
41985;DHT22;28319;48.116;10.818;2023-12-07T19:28:24;0.20;99.90
41985;DHT22;28319;48.116;10.818;2023-12-07T19:33:26;0.00;99.90
41985;DHT22;28319;48.116;10.818;2023-12-07T19:38:30;0.10;99.90
41985;DHT22;28319;48.116;10.818;2023-12-07T19:43:33;0.10;99.90
41985;DHT22;28319;48.116;10.818;2023-12-07T19:48:35;-0.10;99.90
41985;DHT22;28319;48.116;10.818;2023-12-07T19:53:39;-0.20;99.90
41985;DHT22;28319;48.116;10.818;2023-12-07T19:58:40;-0.40;99.90
41985;DHT22;28319;48.116;10.818;2023-12-07T20:03:42;-0.30;99.90
41985;DHT22;28319;48.116;10.818;2023-12-07T20:08:46;-0.30;99.90
41985;DHT22;28319;48.116;10.818;2023-12-07T20:13:49;-0.30;99.90
41985;DHT22;28319;48.116;10.818;2023-12-07T20:18:51;-0.30;99.90
41985;DHT22;28319;48.116;10.818;2023-12-07T20:23:54;-0.40;99.90
41985;DHT22;28319;48.116;10.818;2023-12-07T20:28:56;-0.50;99.90
41985;DHT22;28319;48.116;10.818;2023-12-07T20:33:58;-0.50;99.90
41985;DHT22;28319;48.116;10.818;2023-12-07T20:39:01;-0.60;99.90
41985;DHT22;28319;48.116;10.818;2023-12-07T20:44:03;-0.70;99.90
41985;DHT22;28319;48.116;10.818;2023-12-07T20:49:08;-0.70;99.90
41985;DHT22;28319;48.116;10.818;2023-12-07T20:54:11;-0.80;99.90
41985;DHT22;28319;48.116;10.818;2023-12-07T20:59:13;-0.90;99.90
41985;DHT22;28319;48.116;10.818;2023-12-07T21:04:15;-1.10;99.90
41985;DHT22;28319;48.116;10.818;2023-12-07T21:09:19;-1.20;99.90
41985;DHT22;28319;48.116;10.818;2023-12-07T21:14:20;-1.20;99.90
41985;DHT22;28319;48.116;10.818;2023-12-07T21:19:22;-1.30;99.90
41985;DHT22;28319;48.116;10.818;2023-12-07T21:24:26;-1.30;99.90
41985;DHT22;28319;48.116;10.818;2023-12-07T21:29:28;-1.70;99.90
41985;DHT22;28319;48.116;10.818;2023-12-07T21:34:30;-1.80;99.90
41985;DHT22;28319;48.116;10.818;2023-12-07T21:39:33;-1.90;99.90
41985;DHT22;28319;48.116;10.818;2023-12-07T21:44:37;-1.80;99.90
41985;DHT22;28319;48.116;10.818;2023-12-07T21:49:38;-1.90;99.90
41985;DHT22;28319;48.116;10.818;2023-12-07T21:54:42;-1.90;99.90
41985;DHT22;28319;48.116;10.818;2023-12-07T21:59:44;-1.90;99.90
41985;DHT22;28319;48.116;10.818;2023-12-07T22:04:45;-1.80;99.90
41985;DHT22;28319;48.116;10.818;2023-12-07T22:09:49;-2.00;99.90
41985;DHT22;28319;48.116;10.818;2023-12-07T22:14:51;-2.00;99.90
41985;DHT22;28319;48.116;10.818;2023-12-07T22:19:53;-2.20;99.90
41985;DHT22;28319;48.116;10.818;2023-12-07T22:24:56;-2.10;99.90
41985;DHT22;28319;48.116;10.818;2023-12-07T22:29:58;-2.10;99.90
41985;DHT22;28319;48.116;10.818;2023-12-07T22:35:00;-1.90;99.90
41985;DHT22;28319;48.116;10.818;2023-12-07T22:40:04;-2.20;99.90
41985;DHT22;28319;48.116;10.818;2023-12-07T22:45:08;-2.20;99.90
41985;DHT22;28319;48.116;10.818;2023-12-07T22:50:10;-2.30;99.90
41985;DHT22;28319;48.116;10.818;2023-12-07T22:55:13;-2.80;99.90
41985;DHT22;28319;48.116;10.818;2023-12-07T23:00:16;-2.40;99.90
41985;DHT22;28319;48.116;10.818;2023-12-07T23:05:20;-2.60;99.90
41985;DHT22;28319;48.116;10.818;2023-12-07T23:10:23;-2.50;99.90
41985;DHT22;28319;48.116;10.818;2023-12-07T23:15:25;-2.50;99.90
41985;DHT22;28319;48.116;10.818;2023-12-07T23:20:27;-2.60;99.90
41985;DHT22;28319;48.116;10.818;2023-12-07T23:25:30;-2.50;99.90
41985;DHT22;28319;48.116;10.818;2023-12-07T23:30:32;-2.60;99.90
41985;DHT22;28319;48.116;10.818;2023-12-07T23:35:34;-2.60;99.90
41985;DHT22;28319;48.116;10.818;2023-12-07T23:40:37;-2.60;99.90
41985;DHT22;28319;48.116;10.818;2023-12-07T23:45:39;-2.70;99.90
41985;DHT22;28319;48.116;10.818;2023-12-07T23:50:41;-2.70;99.90
41985;DHT22;28319;48.116;10.818;2023-12-07T23:55:44;-2.70;99.90
